Repto Daguey, Puerto Rico
Current Conditions -  °F | °C
As of 11:50 AM on Monday 26 Jan 2015 (Local Time) from TJBQ Reporting Station
Few Clouds Few Clouds  
Wind Chill: 28°   Ceiling: Unl
Heat Index: 29°   Visibility: 10mi
Dew Point: 19°   Wind: 6mph
Humidity: 58%   Direction: 110°ESE
Pressure: 30.02"   Gusts: NA
Location:  18.2859°N, 67.1412°W
Report Text: TJBQ 261550Z 11005KT 10SM FEW010 28/19 A3002 RMK RWY08 ATIS H
Loading
Personal Weather Stations






























Interactive Weather Map New forecast layout! Learn more

10-Day Weather Forecast

Advertisements
Track Severe Weather on mobile